Kellys Korner, Washington
Current Conditions -  °F | °C
As of 11:54 PM on Sunday 21 Dec 2014 (Local Time) from KOLM Reporting Station
Overcast Overcast  
Wind Chill: 47°   Ceiling: 8000
Heat Index: 47°   Visibility: 10mi
Dew Point: 46°   Wind: 0mph
Humidity: 97%   Direction: NA
Pressure: 30.16"   Gusts: NA
Location:  46.9679°N, 122.834°W
Report Text: KOLM 220754Z AUTO 00000KT 10SM FEW035 SCT055 OVC080 08/08 A3016 RMK AO2 RAE03B27E46 SLP213 P0000 T00830078 401280083
Loading
Personal Weather Stations






























Interactive Weather Map New forecast layout! Learn more

10-Day Weather Forecast

Advertisements
Track Severe Weather on mobile